Time,TemperatureF,DewpointF,PressureIn,WindDirection,WindDirectionDegrees,WindSpeedMPH,WindSpeedGustMPH,Humidity,HourlyPrecipIn,Conditions,Clouds,dailyrainin,SoftwareType,DateUTC
2013-03-30 00:22:00,51.0,49.0,30.05,SSW,207,6.0,-999.0,93,-99.99,,,-99.99,,2013-03-30 07:22:00,
2013-03-30 00:32:00,51.0,49.0,30.05,SSW,207,6.0,-999.0,93,-99.99,,,-99.99,,2013-03-30 07:32:00,
2013-03-30 00:42:00,51.0,49.0,30.05,SSW,207,6.0,-999.0,93,-99.99,,,-99.99,,2013-03-30 07:42:00,
2013-03-30 00:52:00,51.0,49.0,30.05,SSW,207,6.0,-999.0,93,-99.99,,,-99.99,,2013-03-30 07:52:00,
2013-03-30 01:01:00,51.0,49.0,30.05,SSW,207,6.0,-999.0,93,-99.99,,,-99.99,,2013-03-30 08:01:00,
2013-03-30 02:12:00,51.0,50.0,30.05,WSW,242,6.0,-999.0,95,-99.99,,,-99.99,,2013-03-30 09:12:00,
2013-03-30 02:23:00,51.0,50.0,30.05,WSW,242,6.0,-999.0,95,-99.99,,,-99.99,,2013-03-30 09:23:00,
2013-03-30 02:33:00,51.0,50.0,30.05,WSW,242,6.0,-999.0,95,-99.99,,,-99.99,,2013-03-30 09:33:00,
2013-03-30 02:43:00,51.0,50.0,30.05,WSW,242,6.0,-999.0,95,-99.99,,,-99.99,,2013-03-30 09:43:00,
2013-03-30 02:53:00,51.0,50.0,30.05,WSW,242,6.0,-999.0,95,-99.99,,,-99.99,,2013-03-30 09:53:00,
2013-03-30 03:02:00,51.0,50.0,30.05,WSW,242,6.0,-999.0,95,-99.99,,,-99.99,,2013-03-30 10:02:00,
2013-03-30 04:23:00,51.0,50.0,30.02,WSW,240,0.0,-999.0,96,-99.99,,,-99.99,,2013-03-30 11:23:00,
2013-03-30 04:33:00,51.0,50.0,30.02,WSW,240,0.0,-999.0,96,-99.99,,,-99.99,,2013-03-30 11:33:00,
2013-03-30 04:42:00,51.0,50.0,30.02,WSW,240,0.0,-999.0,96,-99.99,,,-99.99,,2013-03-30 11:42:00,
2013-03-30 04:52:00,51.0,50.0,30.02,WSW,240,0.0,-999.0,96,-99.99,,,-99.99,,2013-03-30 11:52:00,
2013-03-30 05:02:00,51.0,50.0,30.02,WSW,240,0.0,-999.0,96,-99.99,,,-99.99,,2013-03-30 12:02:00,
2013-03-30 06:23:00,51.0,50.0,30.02,SW,227,7.0,-999.0,96,-99.99,,,-99.99,,2013-03-30 13:23:00,
2013-03-30 06:32:00,51.0,50.0,30.02,SW,227,7.0,-999.0,96,-99.99,,,-99.99,,2013-03-30 13:32:00,
2013-03-30 06:43:00,51.0,50.0,30.02,SW,227,7.0,-999.0,96,-99.99,,,-99.99,,2013-03-30 13:43:00,
2013-03-30 06:52:00,51.0,50.0,30.02,SW,227,7.0,-999.0,96,-99.99,,,-99.99,,2013-03-30 13:52:00,
2013-03-30 07:02:00,51.0,50.0,30.02,SW,227,7.0,-999.0,96,-99.99,,,-99.99,,2013-03-30 14:02:00,
2013-03-30 08:23:00,50.0,49.0,30.05,SSW,194,7.0,-999.0,96,-99.99,,,-99.99,,2013-03-30 15:23:00,
2013-03-30 08:34:00,50.0,49.0,30.05,SSW,194,7.0,-999.0,96,-99.99,,,-99.99,,2013-03-30 15:34:00,
2013-03-30 08:43:00,50.0,49.0,30.05,SSW,194,7.0,-999.0,96,-99.99,,,-99.99,,2013-03-30 15:43:00,
2013-03-30 08:52:00,50.0,49.0,30.05,SSW,194,7.0,-999.0,96,-99.99,,,-99.99,,2013-03-30 15:52:00,
2013-03-30 09:02:00,50.0,49.0,30.05,SSW,194,7.0,-999.0,96,-99.99,,,-99.99,,2013-03-30 16:02:00,
2013-03-30 10:23:00,53.0,52.0,30.06,SW,231,0.0,-999.0,97,-99.99,,,-99.99,,2013-03-30 17:23:00,
2013-03-30 10:33:00,53.0,52.0,30.06,SW,231,0.0,-999.0,97,-99.99,,,-99.99,,2013-03-30 17:33:00,
2013-03-30 10:42:00,53.0,52.0,30.06,SW,231,0.0,-999.0,97,-99.99,,,-99.99,,2013-03-30 17:42:00,
2013-03-30 10:52:00,53.0,52.0,30.06,SW,231,0.0,-999.0,97,-99.99,,,-99.99,,2013-03-30 17:52:00,
2013-03-30 11:02:00,53.0,52.0,30.06,SW,231,0.0,-999.0,97,-99.99,,,-99.99,,2013-03-30 18:02:00,
2013-03-30 12:22:00,58.0,54.0,30.05,WSW,256,3.0,-999.0,85,-99.99,,,-99.99,,2013-03-30 19:22:00,
2013-03-30 12:32:00,58.0,54.0,30.05,WSW,256,3.0,-999.0,85,-99.99,,,-99.99,,2013-03-30 19:32:00,
2013-03-30 12:42:00,58.0,54.0,30.05,WSW,256,3.0,-999.0,85,-99.99,,,-99.99,,2013-03-30 19:42:00,
2013-03-30 12:53:00,58.0,54.0,30.05,WSW,256,3.0,-999.0,85,-99.99,,,-99.99,,2013-03-30 19:53:00,
2013-03-30 13:02:00,58.0,54.0,30.05,WSW,256,3.0,-999.0,85,-99.99,,,-99.99,,2013-03-30 20:02:00,
2013-03-30 14:23:00,61.0,53.0,30.03,SW,225,10.0,-999.0,74,-99.99,,,-99.99,,2013-03-30 21:23:00,
2013-03-30 14:34:00,61.0,53.0,30.03,SW,225,10.0,-999.0,74,-99.99,,,-99.99,,2013-03-30 21:34:00,
2013-03-30 14:43:00,61.0,53.0,30.03,SW,225,10.0,-999.0,74,-99.99,,,-99.99,,2013-03-30 21:43:00,
2013-03-30 14:53:00,61.0,53.0,30.03,SW,225,10.0,-999.0,74,-99.99,,,-99.99,,2013-03-30 21:53:00,
2013-03-30 15:02:00,61.0,53.0,30.03,SW,225,10.0,-999.0,74,-99.99,,,-99.99,,2013-03-30 22:02:00,
2013-03-30 16:22:00,64.0,51.0,29.99,South,191,5.0,-999.0,62,-99.99,,,-99.99,,2013-03-30 23:22:00,
2013-03-30 16:33:00,64.0,51.0,29.99,South,191,5.0,-999.0,62,-99.99,,,-99.99,,2013-03-30 23:33:00,
2013-03-30 16:43:00,64.0,51.0,29.99,South,191,5.0,-999.0,62,-99.99,,,-99.99,,2013-03-30 23:43:00,
2013-03-30 16:53:00,64.0,51.0,29.99,South,191,5.0,-999.0,62,-99.99,,,-99.99,,2013-03-30 23:53:00,
2013-03-30 17:02:00,64.0,51.0,29.99,South,191,5.0,-999.0,62,-99.99,,,-99.99,,2013-03-31 00:02:00,
2013-03-30 18:22:00,57.0,52.0,29.98,SSW,213,6.0,-999.0,82,-99.99,,,-99.99,,2013-03-31 01:22:00,
2013-03-30 18:32:00,57.0,52.0,29.98,SSW,213,6.0,-999.0,82,-99.99,,,-99.99,,2013-03-31 01:32:00,
2013-03-30 18:43:00,57.0,52.0,29.98,SSW,213,6.0,-999.0,82,-99.99,,,-99.99,,2013-03-31 01:43:00,
2013-03-30 18:52:00,57.0,52.0,29.98,SSW,213,6.0,-999.0,82,-99.99,,,-99.99,,2013-03-31 01:52:00,
2013-03-30 19:02:00,57.0,52.0,29.98,SSW,213,6.0,-999.0,82,-99.99,,,-99.99,,2013-03-31 02:02:00,
2013-03-30 20:22:00,57.0,53.0,30.00,SSW,206,3.0,-999.0,87,-99.99,,,-99.99,,2013-03-31 03:22:00,
2013-03-30 20:33:00,57.0,53.0,30.00,SSW,206,3.0,-999.0,87,-99.99,,,-99.99,,2013-03-31 03:33:00,
2013-03-30 20:43:00,57.0,53.0,30.00,SSW,206,3.0,-999.0,87,-99.99,,,-99.99,,2013-03-31 03:43:00,
2013-03-30 20:53:00,57.0,53.0,30.00,SSW,206,3.0,-999.0,87,-99.99,,,-99.99,,2013-03-31 03:53:00,
2013-03-30 21:02:00,57.0,-99.9,30.00,SSW,206,3.0,-999.0,87,-99.99,,,-99.99,,2013-03-31 04:02:00,
2013-03-30 22:22:00,55.0,52.0,30.01,SW,227,4.0,-999.0,91,-99.99,,,-99.99,,2013-03-31 05:22:00,
2013-03-30 22:32:00,55.0,52.0,30.01,SW,227,4.0,-999.0,91,-99.99,,,-99.99,,2013-03-31 05:32:00,
2013-03-30 22:42:00,55.0,52.0,30.01,SW,227,4.0,-999.0,91,-99.99,,,-99.99,,2013-03-31 05:42:00,
2013-03-30 22:53:00,55.0,52.0,30.01,SW,227,4.0,-999.0,91,-99.99,,,-99.99,,2013-03-31 05:53:00,
2013-03-30 23:01:00,55.0,52.0,30.01,SW,227,4.0,-999.0,91,-99.99,,,-99.99,,2013-03-31 06:01:00,